Time,TemperatureF,DewpointF,PressureIn,WindDirection,WindDirectionDegrees,WindSpeedMPH,WindSpeedGustMPH,Humidity,HourlyPrecipIn,Conditions,Clouds,dailyrainin,SoftwareType,DateUTC
2013-04-15 00:01:00,50.1,43.5,29.70,South,182,1.0,1.0,78,0.00,,,0.00,Wunderground v.1.15,2013-04-15 07:01:00,
2013-04-15 00:50:00,50.1,43.5,29.72,SSE,157,0.0,0.0,78,0.00,,,0.00,Wunderground v.1.15,2013-04-15 07:50:00,
2013-04-15 01:10:00,49.9,43.3,29.73,SSE,155,0.0,0.0,78,0.00,,,0.00,Wunderground v.1.15,2013-04-15 08:10:00,
2013-04-15 01:20:00,49.8,43.5,29.73,SSE,155,0.0,1.0,79,0.00,,,0.00,Wunderground v.1.15,2013-04-15 08:20:00,
2013-04-15 01:30:00,49.6,43.4,29.73,SSE,154,0.0,2.0,79,0.00,,,0.00,Wunderground v.1.15,2013-04-15 08:30:00,
2013-04-15 01:40:00,49.2,43.0,29.73,SSE,152,1.0,1.0,79,0.00,,,0.00,Wunderground v.1.15,2013-04-15 08:40:00,
2013-04-15 01:50:00,48.6,42.7,29.73,SSE,152,0.0,0.0,80,0.00,,,0.00,Wunderground v.1.15,2013-04-15 08:50:00,
2013-04-15 02:00:00,48.3,42.7,29.73,SSE,152,0.0,0.0,81,0.00,,,0.00,Wunderground v.1.15,2013-04-15 09:00:00,
2013-04-15 02:10:00,47.9,42.3,29.73,SSE,152,0.0,0.0,81,0.00,,,0.00,Wunderground v.1.15,2013-04-15 09:10:00,
2013-04-15 02:20:00,47.6,42.1,29.72,SSE,152,0.0,0.0,81,0.00,,,0.00,Wunderground v.1.15,2013-04-15 09:20:00,
2013-04-15 02:30:00,47.4,41.9,29.73,SSE,152,0.0,0.0,81,0.00,,,0.00,Wunderground v.1.15,2013-04-15 09:30:00,
2013-04-15 02:40:00,47.3,42.1,29.73,SSE,152,0.0,0.0,82,0.00,,,0.00,Wunderground v.1.15,2013-04-15 09:40:00,
2013-04-15 02:50:00,47.1,41.9,29.73,SSE,152,0.0,0.0,82,0.00,,,0.00,Wunderground v.1.15,2013-04-15 09:50:00,
2013-04-15 03:00:00,47.1,41.9,29.73,SSE,152,0.0,0.0,82,0.00,,,0.00,Wunderground v.1.15,2013-04-15 10:00:00,
2013-04-15 03:10:00,47.3,42.4,29.73,SSE,152,0.0,0.0,83,0.00,,,0.00,Wunderground v.1.15,2013-04-15 10:10:00,
2013-04-15 03:20:00,47.6,42.7,29.74,SSE,152,0.0,1.0,83,0.00,,,0.00,Wunderground v.1.15,2013-04-15 10:20:00,
2013-04-15 03:30:00,47.7,43.1,29.73,SSE,152,0.0,2.0,84,0.00,,,0.00,Wunderground v.1.15,2013-04-15 10:30:00,
2013-04-15 03:40:00,47.7,43.1,29.73,SSE,152,0.0,0.0,84,0.00,,,0.00,Wunderground v.1.15,2013-04-15 10:40:00,
2013-04-15 03:50:00,47.4,42.8,29.73,SSE,152,0.0,2.0,84,0.00,,,0.00,Wunderground v.1.15,2013-04-15 10:50:00,
2013-04-15 04:01:00,47.1,42.5,29.74,SSE,152,0.0,0.0,84,0.00,,,0.00,Wunderground v.1.15,2013-04-15 11:01:00,
2013-04-15 04:10:00,47.0,42.7,29.74,SSE,152,0.0,1.0,85,0.00,,,0.00,Wunderground v.1.15,2013-04-15 11:10:00,
2013-04-15 04:20:00,46.8,42.5,29.74,SSE,152,0.0,0.0,85,0.00,,,0.00,Wunderground v.1.15,2013-04-15 11:20:00,
2013-04-15 04:30:00,46.7,42.7,29.74,SSE,152,0.0,0.0,86,0.00,,,0.00,Wunderground v.1.15,2013-04-15 11:30:00,
2013-04-15 04:40:00,46.4,42.1,29.74,SSE,152,0.0,0.0,85,0.00,,,0.00,Wunderground v.1.15,2013-04-15 11:40:00,
2013-04-15 04:50:00,46.2,42.2,29.74,SSE,152,0.0,0.0,86,0.00,,,0.00,Wunderground v.1.15,2013-04-15 11:50:00,
2013-04-15 05:00:00,46.2,42.2,29.74,SSE,152,0.0,0.0,86,0.00,,,0.00,Wunderground v.1.15,2013-04-15 12:00:00,
2013-04-15 05:10:00,45.8,41.9,29.74,SSE,152,0.0,0.0,86,0.00,,,0.00,Wunderground v.1.15,2013-04-15 12:10:00,
2013-04-15 05:20:00,45.7,41.8,29.74,SSE,152,0.0,0.0,86,0.00,,,0.00,Wunderground v.1.15,2013-04-15 12:20:00,
2013-04-15 05:30:00,45.2,41.3,29.74,SSE,152,0.0,0.0,86,0.00,,,0.00,Wunderground v.1.15,2013-04-15 12:30:00,
2013-04-15 05:40:00,45.1,41.2,29.74,SSE,152,0.0,0.0,86,0.00,,,0.00,Wunderground v.1.15,2013-04-15 12:40:00,
2013-04-15 05:50:00,44.8,40.9,29.75,SSE,152,0.0,0.0,86,0.00,,,0.00,Wunderground v.1.15,2013-04-15 12:50:00,
2013-04-15 06:01:00,44.5,40.6,29.75,SSE,152,0.0,0.0,86,0.00,,,0.00,Wunderground v.1.15,2013-04-15 13:01:00,
2013-04-15 06:10:00,44.2,40.3,29.75,SSE,152,0.0,0.0,86,0.00,,,0.00,Wunderground v.1.15,2013-04-15 13:10:00,
2013-04-15 06:20:00,44.1,40.2,29.76,SSE,152,0.0,0.0,86,0.00,,,0.00,Wunderground v.1.15,2013-04-15 13:20:00,
2013-04-15 06:30:00,43.9,40.0,29.76,SSE,152,0.0,0.0,86,0.00,,,0.00,Wunderground v.1.15,2013-04-15 13:30:00,
2013-04-15 06:40:00,43.9,40.0,29.76,SSE,152,0.0,0.0,86,0.00,,,0.00,Wunderground v.1.15,2013-04-15 13:40:00,
2013-04-15 06:50:00,43.9,40.0,29.76,SSE,152,0.0,0.0,86,0.00,,,0.00,Wunderground v.1.15,2013-04-15 13:50:00,
2013-04-15 07:00:00,43.9,40.0,29.76,SSE,152,0.0,0.0,86,0.00,,,0.00,Wunderground v.1.15,2013-04-15 14:00:00,
2013-04-15 07:10:00,44.2,40.3,29.76,SSE,152,0.0,0.0,86,0.00,,,0.00,Wunderground v.1.15,2013-04-15 14:10:00,
2013-04-15 07:20:00,44.2,40.3,29.77,SSE,152,0.0,0.0,86,0.00,,,0.00,Wunderground v.1.15,2013-04-15 14:20:00,
2013-04-15 07:30:00,44.8,41.2,29.77,SSE,152,0.0,0.0,87,0.00,,,0.00,Wunderground v.1.15,2013-04-15 14:30:00,
2013-04-15 07:40:00,45.5,41.9,29.77,SSE,152,0.0,0.0,87,0.00,,,0.00,Wunderground v.1.15,2013-04-15 14:40:00,
2013-04-15 07:50:00,46.2,42.8,29.77,SSE,152,0.0,0.0,88,0.00,,,0.00,Wunderground v.1.15,2013-04-15 14:50:00,
2013-04-15 08:01:00,47.1,43.7,29.78,SSE,152,0.0,0.0,88,0.00,,,0.00,Wunderground v.1.15,2013-04-15 15:01:00,
2013-04-15 08:10:00,47.7,44.0,29.78,SSE,152,0.0,0.0,87,0.00,,,0.00,Wunderground v.1.15,2013-04-15 15:10:00,
2013-04-15 08:20:00,48.0,44.0,29.79,SSE,152,0.0,0.0,86,0.00,,,0.00,Wunderground v.1.15,2013-04-15 15:20:00,
2013-04-15 08:30:00,48.8,44.8,29.79,SSE,152,0.0,0.0,86,0.00,,,0.00,Wunderground v.1.15,2013-04-15 15:30:00,
2013-04-15 08:40:00,49.4,45.1,29.79,SSE,152,1.0,2.0,85,0.00,,,0.00,Wunderground v.1.15,2013-04-15 15:40:00,
2013-04-15 08:50:00,49.9,44.6,29.78,SSE,152,0.0,0.0,82,0.00,,,0.00,Wunderground v.1.15,2013-04-15 15:50:00,
2013-04-15 09:00:00,51.3,45.3,29.78,ESE,112,1.0,1.0,80,0.00,,,0.00,Wunderground v.1.15,2013-04-15 16:00:00,
2013-04-15 09:10:00,51.3,44.3,29.78,ESE,117,1.0,1.0,77,0.00,,,0.00,Wunderground v.1.15,2013-04-15 16:10:00,
2013-04-15 09:20:00,52.0,44.7,29.78,ESE,117,0.0,0.0,76,0.00,,,0.00,Wunderground v.1.15,2013-04-15 16:20:00,
2013-04-15 09:30:00,52.5,44.8,29.78,ESE,116,1.0,1.0,75,0.00,,,0.00,Wunderground v.1.15,2013-04-15 16:30:00,
2013-04-15 09:40:00,52.8,44.4,29.78,SE,130,1.0,1.0,73,0.00,,,0.00,Wunderground v.1.15,2013-04-15 16:40:00,
2013-04-15 09:50:00,54.1,44.9,29.78,SE,128,0.0,3.0,71,0.00,,,0.00,Wunderground v.1.15,2013-04-15 16:50:00,
2013-04-15 10:01:00,54.4,44.4,29.78,SE,127,1.0,1.0,69,0.00,,,0.00,Wunderground v.1.15,2013-04-15 17:01:00,
2013-04-15 10:10:00,54.1,45.3,29.78,SSE,147,1.0,1.0,72,0.00,,,0.00,Wunderground v.1.15,2013-04-15 17:10:00,
2013-04-15 10:30:00,54.5,44.9,29.78,SSE,147,0.0,0.0,70,0.00,,,0.00,Wunderground v.1.15,2013-04-15 17:30:00,
2013-04-15 10:40:00,56.0,44.8,29.78,SSE,151,1.0,1.0,66,0.00,,,0.00,Wunderground v.1.15,2013-04-15 17:40:00,
2013-04-15 10:50:00,57.6,45.5,29.78,SSE,152,0.0,1.0,64,0.00,,,0.00,Wunderground v.1.15,2013-04-15 17:50:00,
2013-04-15 11:00:00,56.7,44.7,29.78,SSE,152,1.0,1.0,64,0.00,,,0.00,Wunderground v.1.15,2013-04-15 18:00:00,
2013-04-15 11:10:00,57.2,45.1,29.78,SSE,154,0.0,0.0,64,0.00,,,0.00,Wunderground v.1.15,2013-04-15 18:10:00,
2013-04-15 11:20:00,59.0,45.1,29.78,South,174,1.0,3.0,60,0.00,,,0.00,Wunderground v.1.15,2013-04-15 18:20:00,
2013-04-15 11:30:00,57.0,44.1,29.78,South,174,1.0,1.0,62,0.00,,,0.00,Wunderground v.1.15,2013-04-15 18:30:00,
2013-04-15 11:40:00,58.3,45.8,29.78,South,174,1.0,1.0,63,0.00,,,0.00,Wunderground v.1.15,2013-04-15 18:40:00,
2013-04-15 11:50:00,59.2,46.2,29.77,South,174,0.0,0.0,62,0.00,,,0.00,Wunderground v.1.15,2013-04-15 18:50:00,
2013-04-15 12:01:00,58.9,45.0,29.77,South,174,0.0,0.0,60,0.00,,,0.00,Wunderground v.1.15,2013-04-15 19:01:00,
2013-04-15 12:10:00,59.2,45.8,29.77,South,174,0.0,0.0,61,0.00,,,0.00,Wunderground v.1.15,2013-04-15 19:10:00,
2013-04-15 12:20:00,59.8,45.0,29.77,South,174,0.0,0.0,58,0.00,,,0.00,Wunderground v.1.15,2013-04-15 19:20:00,
2013-04-15 12:30:00,59.3,45.0,29.77,South,176,1.0,2.0,59,0.00,,,0.00,Wunderground v.1.15,2013-04-15 19:30:00,
2013-04-15 12:40:00,59.9,45.1,29.77,South,176,1.0,1.0,58,0.00,,,0.00,Wunderground v.1.15,2013-04-15 19:40:00,
2013-04-15 12:50:00,59.5,44.2,29.77,South,176,0.0,0.0,57,0.00,,,0.00,Wunderground v.1.15,2013-04-15 19:50:00,
2013-04-15 13:00:00,59.0,42.8,29.76,SSW,193,1.0,1.0,55,0.00,,,0.00,Wunderground v.1.15,2013-04-15 20:00:00,
2013-04-15 13:10:00,58.9,42.8,29.76,SSW,192,1.0,1.0,55,0.00,,,0.00,Wunderground v.1.15,2013-04-15 20:10:00,
2013-04-15 13:20:00,59.5,41.3,29.75,SSW,206,3.0,3.0,51,0.00,,,0.00,Wunderground v.1.15,2013-04-15 20:20:00,
2013-04-15 13:30:00,62.6,42.1,29.75,SSW,208,1.0,1.0,47,0.00,,,0.00,Wunderground v.1.15,2013-04-15 20:30:00,
2013-04-15 13:40:00,61.2,42.4,29.75,SSW,208,1.0,1.0,50,0.00,,,0.00,Wunderground v.1.15,2013-04-15 20:40:00,
2013-04-15 13:50:00,60.7,41.9,29.74,SSW,209,1.0,1.0,50,0.00,,,0.00,Wunderground v.1.15,2013-04-15 20:50:00,
2013-04-15 14:01:00,60.5,39.6,29.74,SSW,209,1.0,1.0,46,0.00,,,0.00,Wunderground v.1.15,2013-04-15 21:01:00,
2013-04-15 14:10:00,61.3,39.2,29.74,SSW,206,1.0,1.0,44,0.00,,,0.00,Wunderground v.1.15,2013-04-15 21:10:00,
2013-04-15 14:20:00,60.4,38.4,29.73,SSW,206,2.0,2.0,44,0.00,,,0.00,Wunderground v.1.15,2013-04-15 21:20:00,
2013-04-15 14:30:00,59.9,39.6,29.72,SSW,209,3.0,5.0,47,0.00,,,0.00,Wunderground v.1.15,2013-04-15 21:30:00,
2013-04-15 14:40:00,60.2,39.9,29.72,SW,223,7.0,7.0,47,0.00,,,0.00,Wunderground v.1.15,2013-04-15 21:40:00,
2013-04-15 14:50:00,61.0,38.9,29.72,SSW,213,8.0,8.0,44,0.00,,,0.00,Wunderground v.1.15,2013-04-15 21:50:00,
2013-04-15 15:00:00,61.2,37.9,29.71,SSW,208,9.0,9.0,42,0.00,,,0.00,Wunderground v.1.15,2013-04-15 22:00:00,
2013-04-15 15:10:00,60.2,37.6,29.71,SW,226,7.0,7.0,43,0.00,,,0.00,Wunderground v.1.15,2013-04-15 22:10:00,
2013-04-15 15:20:00,59.5,37.0,29.71,SW,220,6.0,18.0,43,0.00,,,0.00,Wunderground v.1.15,2013-04-15 22:20:00,
2013-04-15 15:30:00,58.4,37.1,29.71,SSW,192,8.0,8.0,45,0.00,,,0.00,Wunderground v.1.15,2013-04-15 22:30:00,
2013-04-15 15:40:00,58.3,34.7,29.71,SSW,209,8.0,8.0,41,0.00,,,0.00,Wunderground v.1.15,2013-04-15 22:40:00,
2013-04-15 15:50:00,58.9,33.3,29.70,SW,223,4.0,4.0,38,0.00,,,0.00,Wunderground v.1.15,2013-04-15 22:50:00,
2013-04-15 16:01:00,58.1,37.4,29.71,WSW,240,4.0,4.0,46,0.00,,,0.00,Wunderground v.1.15,2013-04-15 23:01:00,
2013-04-15 16:10:00,57.8,39.3,29.71,NW,312,5.0,11.0,50,0.00,,,0.00,Wunderground v.1.15,2013-04-15 23:10:00,
2013-04-15 16:20:00,56.6,42.0,29.72,NNE,21,5.0,5.0,58,0.00,,,0.01,Wunderground v.1.15,2013-04-15 23:20:00,
2013-04-15 16:30:00,54.8,43.3,29.72,North,0,7.0,7.0,65,0.00,,,0.01,Wunderground v.1.15,2013-04-15 23:30:00,
2013-04-15 16:40:00,53.3,43.8,29.72,North,0,6.0,8.0,70,0.10,,,0.03,Wunderground v.1.15,2013-04-15 23:40:00,
2013-04-15 16:50:00,52.3,43.9,29.73,ENE,61,5.0,6.0,73,0.05,,,0.04,Wunderground v.1.15,2013-04-15 23:50:00,
2013-04-15 17:01:00,51.3,43.6,29.72,ENE,68,7.0,11.0,75,0.05,,,0.04,Wunderground v.1.15,2013-04-16 00:01:00,
2013-04-15 17:10:00,50.8,43.2,29.72,NE,56,7.0,7.0,75,0.00,,,0.04,Wunderground v.1.15,2013-04-16 00:10:00,
2013-04-15 17:20:00,50.7,43.1,29.71,NE,56,6.0,6.0,75,0.00,,,0.04,Wunderground v.1.15,2013-04-16 00:20:00,
2013-04-15 17:30:00,50.8,43.2,29.71,ENE,58,4.0,11.0,75,0.00,,,0.04,Wunderground v.1.15,2013-04-16 00:30:00,
2013-04-15 17:40:00,51.0,43.0,29.71,NNE,30,6.0,6.0,74,0.00,,,0.04,Wunderground v.1.15,2013-04-16 00:40:00,
2013-04-15 17:50:00,51.7,43.7,29.71,ENE,58,4.0,8.0,74,0.00,,,0.04,Wunderground v.1.15,2013-04-16 00:50:00,
2013-04-15 18:00:00,52.2,42.3,29.71,ENE,68,5.0,5.0,69,0.00,,,0.04,Wunderground v.1.15,2013-04-16 01:00:00,
2013-04-15 18:10:00,52.8,42.5,29.71,NE,52,3.0,6.0,68,0.00,,,0.04,Wunderground v.1.15,2013-04-16 01:10:00,
2013-04-15 18:20:00,52.8,41.4,29.72,NE,55,4.0,6.0,65,0.00,,,0.04,Wunderground v.1.15,2013-04-16 01:20:00,
2013-04-15 18:30:00,52.8,41.4,29.72,NE,56,2.0,2.0,65,0.00,,,0.04,Wunderground v.1.15,2013-04-16 01:30:00,
2013-04-15 18:40:00,52.6,41.2,29.72,ENE,58,2.0,2.0,65,0.00,,,0.04,Wunderground v.1.15,2013-04-16 01:40:00,
2013-04-15 18:50:00,52.6,41.2,29.73,ENE,65,1.0,5.0,65,0.00,,,0.04,Wunderground v.1.15,2013-04-16 01:50:00,
2013-04-15 19:01:00,52.6,41.6,29.73,ENE,73,1.0,2.0,66,0.00,,,0.04,Wunderground v.1.15,2013-04-16 02:01:00,
2013-04-15 19:10:00,52.2,41.2,29.73,East,80,2.0,2.0,66,0.00,,,0.04,Wunderground v.1.15,2013-04-16 02:10:00,
2013-04-15 19:20:00,51.6,41.0,29.73,East,89,1.0,4.0,67,0.00,,,0.04,Wunderground v.1.15,2013-04-16 02:20:00,
2013-04-15 19:30:00,51.0,40.4,29.73,East,89,1.0,1.0,67,0.00,,,0.04,Wunderground v.1.15,2013-04-16 02:30:00,
2013-04-15 19:40:00,50.4,40.6,29.73,East,89,0.0,0.0,69,0.00,,,0.04,Wunderground v.1.15,2013-04-16 02:40:00,
2013-04-15 19:50:00,49.9,40.1,29.73,East,89,0.0,0.0,69,0.00,,,0.04,Wunderground v.1.15,2013-04-16 02:50:00,
2013-04-15 20:00:00,49.8,41.1,29.75,WNW,285,1.0,2.0,72,0.00,,,0.04,Wunderground v.1.15,2013-04-16 03:00:00,
2013-04-15 20:10:00,49.6,40.6,29.75,WNW,285,1.0,1.0,71,0.00,,,0.04,Wunderground v.1.15,2013-04-16 03:10:00,
2013-04-15 20:20:00,49.9,41.2,29.76,WNW,285,0.0,0.0,72,0.00,,,0.04,Wunderground v.1.15,2013-04-16 03:20:00,
2013-04-15 20:30:00,49.9,41.2,29.76,WNW,285,0.0,0.0,72,0.00,,,0.04,Wunderground v.1.15,2013-04-16 03:30:00,
2013-04-15 20:40:00,49.9,41.6,29.76,WNW,285,0.0,0.0,73,0.00,,,0.04,Wunderground v.1.15,2013-04-16 03:40:00,
2013-04-15 20:50:00,49.9,41.6,29.77,WNW,285,0.0,0.0,73,0.00,,,0.04,Wunderground v.1.15,2013-04-16 03:50:00,
2013-04-15 21:00:00,49.8,41.5,29.78,WNW,285,0.0,0.0,73,0.00,,,0.04,Wunderground v.1.15,2013-04-16 04:00:00,
2013-04-15 21:10:00,49.9,42.3,29.78,WNW,285,0.0,0.0,75,0.00,,,0.04,Wunderground v.1.15,2013-04-16 04:10:00,
2013-04-15 21:20:00,49.8,42.2,29.78,WNW,285,0.0,0.0,75,0.00,,,0.04,Wunderground v.1.15,2013-04-16 04:20:00,
2013-04-15 21:30:00,49.6,42.0,29.78,WNW,285,0.0,0.0,75,0.00,,,0.04,Wunderground v.1.15,2013-04-16 04:30:00,
2013-04-15 21:40:00,49.5,41.6,29.78,WNW,285,0.0,0.0,74,0.00,,,0.04,Wunderground v.1.15,2013-04-16 04:40:00,
2013-04-15 21:50:00,48.6,40.7,29.79,WNW,285,0.0,0.0,74,0.00,,,0.04,Wunderground v.1.15,2013-04-16 04:50:00,
2013-04-15 22:01:00,47.4,39.5,29.79,WNW,285,0.0,2.0,74,0.00,,,0.04,Wunderground v.1.15,2013-04-16 05:01:00,
2013-04-15 22:10:00,46.8,39.3,29.79,WNW,285,1.0,1.0,75,0.00,,,0.04,Wunderground v.1.15,2013-04-16 05:10:00,
2013-04-15 22:20:00,46.8,39.3,29.79,WNW,285,0.0,0.0,75,0.00,,,0.04,Wunderground v.1.15,2013-04-16 05:20:00,
2013-04-15 22:30:00,46.8,39.3,29.79,WNW,285,0.0,0.0,75,0.00,,,0.04,Wunderground v.1.15,2013-04-16 05:30:00,
2013-04-15 22:40:00,46.8,38.6,29.79,WNW,285,1.0,1.0,73,0.00,,,0.04,Wunderground v.1.15,2013-04-16 05:40:00,
2013-04-15 22:50:00,47.1,37.1,29.79,WNW,285,1.0,1.0,68,0.00,,,0.04,Wunderground v.1.15,2013-04-16 05:50:00,
2013-04-15 23:00:00,47.9,35.5,29.79,NW,308,1.0,1.0,62,0.00,,,0.04,Wunderground v.1.15,2013-04-16 06:00:00,
2013-04-15 23:10:00,48.8,34.2,29.79,NW,308,1.0,1.0,57,0.00,,,0.04,Wunderground v.1.15,2013-04-16 06:10:00,
2013-04-15 23:20:00,49.2,34.6,29.80,NW,308,0.0,0.0,57,0.00,,,0.04,Wunderground v.1.15,2013-04-16 06:20:00,
2013-04-15 23:30:00,49.2,33.7,29.80,NW,306,1.0,3.0,55,0.00,,,0.04,Wunderground v.1.15,2013-04-16 06:30:00,
2013-04-15 23:40:00,49.4,33.4,29.80,NW,306,1.0,1.0,54,0.00,,,0.04,Wunderground v.1.15,2013-04-16 06:40:00,
2013-04-15 23:50:00,49.4,33.0,29.80,NW,306,1.0,1.0,53,0.00,,,0.04,Wunderground v.1.15,2013-04-16 06:50:00,